createdAt,value
2017-11-07T00:01:50.103Z,18.97
2017-11-07T00:04:18.418Z,22.27
2017-11-07T00:06:46.752Z,26.90
2017-11-07T00:09:15.203Z,26.03
2017-11-07T00:11:43.498Z,25.97
2017-11-07T00:14:11.833Z,23.03
2017-11-07T00:16:40.250Z,29.43
2017-11-07T00:19:08.625Z,29.43
2017-11-07T00:21:37.022Z,23.80
2017-11-07T00:24:05.474Z,23.90
2017-11-07T00:26:33.852Z,18.50
2017-11-07T00:29:02.977Z,26.50
2017-11-07T00:31:31.359Z,24.63
2017-11-07T00:33:59.754Z,19.07
2017-11-07T00:36:28.081Z,38.33
2017-11-07T00:38:56.458Z,18.07
2017-11-07T00:41:24.813Z,21.10
2017-11-07T00:43:53.922Z,19.20
2017-11-07T00:46:22.292Z,20.27
2017-11-07T00:48:51.435Z,20.13
2017-11-07T00:51:19.810Z,22.23
2017-11-07T00:53:48.905Z,19.80
2017-11-07T00:56:18.056Z,21.50
2017-11-07T00:58:46.461Z,25.00
2017-11-07T01:01:14.776Z,22.23
2017-11-07T01:03:43.072Z,19.43
2017-11-07T01:06:11.379Z,20.37
2017-11-07T01:08:39.673Z,23.07
2017-11-07T01:11:08.745Z,22.53
2017-11-07T01:13:37.039Z,22.10
2017-11-07T01:16:05.331Z,16.07
2017-11-07T01:18:33.623Z,21.53
2017-11-07T01:21:02.684Z,17.93
2017-11-07T01:23:30.967Z,14.63
2017-11-07T01:25:59.277Z,19.23
2017-11-07T01:28:27.583Z,21.63
2017-11-07T01:30:55.876Z,24.50
2017-11-07T01:33:24.158Z,13.90
2017-11-07T01:35:52.449Z,13.80
2017-11-07T01:38:20.735Z,24.60
2017-11-07T01:40:49.032Z,13.70
2017-11-07T01:43:17.315Z,14.77
2017-11-07T01:45:45.613Z,20.40
2017-11-07T01:48:13.934Z,18.00
2017-11-07T01:50:42.243Z,14.00
2017-11-07T01:53:10.535Z,20.80
2017-11-07T01:55:38.821Z,19.57
2017-11-07T01:58:07.100Z,15.60
2017-11-07T02:00:35.396Z,13.63
2017-11-07T02:03:03.683Z,18.07
2017-11-07T02:05:31.969Z,16.93
2017-11-07T02:08:00.269Z,16.40
2017-11-07T02:10:28.563Z,14.57
2017-11-07T02:12:56.858Z,17.33
2017-11-07T02:15:25.215Z,16.97
2017-11-07T02:17:53.561Z,16.10
2017-11-07T02:20:21.892Z,19.20
2017-11-07T02:22:50.278Z,21.80
2017-11-07T02:25:18.674Z,19.93
2017-11-07T02:27:47.073Z,19.17
2017-11-07T02:30:15.391Z,20.00
2017-11-07T02:32:43.678Z,20.37
2017-11-07T02:35:11.986Z,19.43
2017-11-07T02:37:40.280Z,197.67
2017-11-07T02:40:08.601Z,31.63
2017-11-07T02:42:37.680Z,24.13
2017-11-07T02:45:05.991Z,26.03
2017-11-07T02:47:34.307Z,19.20
2017-11-07T02:50:02.591Z,23.93
2017-11-07T02:52:30.887Z,22.57
2017-11-07T02:54:59.193Z,63.40
2017-11-07T02:57:27.482Z,22.67
2017-11-07T02:59:55.766Z,19.13
2017-11-07T03:02:24.081Z,19.50
2017-11-07T03:04:52.373Z,25.40
2017-11-07T03:07:20.657Z,23.20
2017-11-07T03:09:48.954Z,18.47
2017-11-07T03:12:17.225Z,14.97
2017-11-07T03:14:45.559Z,18.27
2017-11-07T03:17:13.876Z,18.43
2017-11-07T03:19:42.183Z,15.93
2017-11-07T03:22:10.475Z,17.53
2017-11-07T03:24:38.803Z,13.97
2017-11-07T03:27:07.146Z,12.27
2017-11-07T03:29:35.439Z,15.70
2017-11-07T03:32:03.747Z,13.13
2017-11-07T03:34:32.047Z,15.33
2017-11-07T03:37:00.334Z,9.27
2017-11-07T03:39:28.643Z,13.33
2017-11-07T03:41:56.959Z,12.80
2017-11-07T03:44:26.021Z,15.93
2017-11-07T03:46:54.356Z,13.27
2017-11-07T03:49:23.397Z,14.80
2017-11-07T03:51:51.719Z,15.37
2017-11-07T03:54:20.049Z,12.37
2017-11-07T03:56:48.685Z,11.10
2017-11-07T03:59:16.974Z,16.40
2017-11-07T04:01:45.303Z,10.20
2017-11-07T04:04:14.357Z,9.83
2017-11-07T04:06:42.660Z,10.77
2017-11-07T04:09:10.946Z,10.60
2017-11-07T04:11:39.250Z,11.00
2017-11-07T04:14:07.542Z,13.40
2017-11-07T04:16:35.835Z,8.43
2017-11-07T04:19:04.123Z,9.00
2017-11-07T04:21:32.404Z,9.77
2017-11-07T04:24:00.691Z,11.53
2017-11-07T04:26:28.986Z,19.23
2017-11-07T04:28:57.305Z,10.87
2017-11-07T04:31:26.350Z,10.80
2017-11-07T04:33:54.651Z,15.07
2017-11-07T04:36:22.961Z,10.27
2017-11-07T04:38:51.239Z,8.47
2017-11-07T04:41:19.556Z,11.80
2017-11-07T04:43:49.033Z,9.00
2017-11-07T04:46:17.342Z,6.40
2017-11-07T04:48:45.637Z,7.90
2017-11-07T04:51:13.926Z,7.67
2017-11-07T04:53:42.244Z,9.13
2017-11-07T04:56:11.301Z,11.23
2017-11-07T04:58:39.616Z,10.67
2017-11-07T05:01:07.904Z,9.57
2017-11-07T05:03:36.200Z,9.20
2017-11-07T05:06:04.478Z,9.50
2017-11-07T05:08:32.798Z,14.37
2017-11-07T05:11:01.101Z,13.10
2017-11-07T05:13:29.442Z,5.77
2017-11-07T05:15:57.708Z,8.13
2017-11-07T05:18:26.012Z,6.10
2017-11-07T05:20:54.328Z,6.13
2017-11-07T05:23:23.391Z,10.87
2017-11-07T05:25:51.698Z,8.53
2017-11-07T05:28:19.982Z,9.17
2017-11-07T05:30:48.333Z,7.17
2017-11-07T05:33:16.651Z,7.07
2017-11-07T05:35:44.947Z,9.30
2017-11-07T05:38:13.264Z,13.47
2017-11-07T05:40:41.555Z,10.70
2017-11-07T05:43:10.631Z,7.70
2017-11-07T05:45:38.923Z,8.40
2017-11-07T05:48:07.244Z,6.90
2017-11-07T05:50:35.511Z,7.87
2017-11-07T05:53:03.816Z,7.50
2017-11-07T05:55:32.110Z,10.83
2017-11-07T05:58:01.202Z,8.67
2017-11-07T06:00:29.491Z,6.87
2017-11-07T06:02:57.803Z,7.67
2017-11-07T06:05:26.841Z,8.67
2017-11-07T06:07:55.137Z,6.37
2017-11-07T06:10:23.414Z,8.73
2017-11-07T06:12:51.700Z,10.00
2017-11-07T06:15:19.987Z,11.70
2017-11-07T06:17:48.272Z,9.93
2017-11-07T06:20:16.560Z,9.47
2017-11-07T06:22:44.881Z,14.43
2017-11-07T06:25:13.175Z,12.40
2017-11-07T06:27:41.484Z,9.73
2017-11-07T06:30:09.791Z,8.53
2017-11-07T06:32:38.854Z,14.20
2017-11-07T06:35:07.152Z,11.07
2017-11-07T06:37:35.432Z,11.20
2017-11-07T06:40:03.723Z,15.17
2017-11-07T06:42:32.093Z,17.10
2017-11-07T06:45:00.479Z,13.00
2017-11-07T06:47:28.826Z,21.00
2017-11-07T06:49:57.939Z,14.10
2017-11-07T06:52:27.032Z,12.00
2017-11-07T06:54:55.376Z,10.30
2017-11-07T06:57:23.713Z,14.80
2017-11-07T06:59:52.850Z,11.33
2017-11-07T07:02:21.189Z,13.00
2017-11-07T07:04:49.553Z,13.47
2017-11-07T07:07:17.921Z,11.80
2017-11-07T07:09:46.265Z,16.70
2017-11-07T07:12:14.651Z,9.10
2017-11-07T07:14:42.941Z,9.07
2017-11-07T07:17:11.221Z,9.00
2017-11-07T07:19:39.504Z,15.30
2017-11-07T07:22:07.801Z,16.53
2017-11-07T07:24:36.095Z,11.87
2017-11-07T07:27:04.388Z,10.43
2017-11-07T07:29:32.694Z,14.20
2017-11-07T07:32:01.144Z,10.77
2017-11-07T07:34:29.632Z,8.43
2017-11-07T07:36:58.299Z,7.93
2017-11-07T07:39:26.591Z,11.70
2017-11-07T07:41:55.648Z,7.80
2017-11-07T07:44:23.936Z,10.87
2017-11-07T07:46:52.227Z,10.33
2017-11-07T07:49:20.502Z,7.00
2017-11-07T07:51:48.772Z,8.97
2017-11-07T07:54:17.080Z,9.83
2017-11-07T07:56:45.385Z,7.20
2017-11-07T07:59:13.682Z,7.30
2017-11-07T08:01:41.964Z,8.97
2017-11-07T08:04:10.274Z,7.83
2017-11-07T08:06:38.570Z,10.33
2017-11-07T08:09:06.859Z,7.53
2017-11-07T08:11:35.145Z,12.17
2017-11-07T08:14:04.199Z,13.30
2017-11-07T08:16:32.726Z,23.37
2017-11-07T08:19:01.863Z,11.23
2017-11-07T08:21:30.201Z,14.90
2017-11-07T08:23:59.277Z,20.53
2017-11-07T08:26:27.776Z,12.13
2017-11-07T08:28:56.119Z,10.50
2017-11-07T08:31:24.405Z,9.23
2017-11-07T08:33:52.711Z,15.00
2017-11-07T08:36:21.072Z,15.30
2017-11-07T08:38:49.624Z,17.13
2017-11-07T08:41:18.208Z,12.63
2017-11-07T08:43:46.728Z,17.93
2017-11-07T08:46:15.227Z,13.70
2017-11-07T08:48:43.705Z,21.37
2017-11-07T08:51:12.215Z,16.80
2017-11-07T08:53:40.782Z,20.50
2017-11-07T08:56:09.434Z,32.00
2017-11-07T08:58:37.751Z,23.47
2017-11-07T09:01:06.819Z,36.97
2017-11-07T09:03:35.169Z,38.87
2017-11-07T09:06:03.455Z,28.53
2017-11-07T09:08:31.763Z,28.93
2017-11-07T09:11:00.825Z,30.00
2017-11-07T09:13:29.217Z,27.03
2017-11-07T09:15:58.327Z,32.27
2017-11-07T09:18:27.472Z,38.53
2017-11-07T09:20:55.808Z,33.83
2017-11-07T09:23:24.212Z,29.40
2017-11-07T09:25:52.584Z,27.93
2017-11-07T09:28:20.962Z,30.83
2017-11-07T09:30:49.347Z,33.60
2017-11-07T09:33:17.721Z,24.53
2017-11-07T09:35:46.117Z,76.73
2017-11-07T09:38:14.451Z,27.67
2017-11-07T09:40:42.748Z,34.53
2017-11-07T09:43:11.836Z,31.30
2017-11-07T09:48:14.586Z,27.53
2017-11-07T09:50:42.891Z,28.67
2017-11-07T09:53:11.947Z,27.57
2017-11-07T09:55:40.278Z,31.13
2017-11-07T09:58:09.353Z,36.47
2017-11-07T10:00:37.655Z,28.63
2017-11-07T10:03:06.813Z,29.80
2017-11-07T10:05:35.099Z,32.60
2017-11-07T10:08:03.393Z,24.27
2017-11-07T10:10:31.697Z,31.93
2017-11-07T10:12:59.992Z,25.07
2017-11-07T10:15:28.318Z,23.63
2017-11-07T10:17:57.394Z,19.80
2017-11-07T10:20:25.701Z,18.33
2017-11-07T10:22:53.986Z,21.90
2017-11-07T10:25:22.361Z,20.53
2017-11-07T10:27:50.757Z,22.00
2017-11-07T10:30:19.059Z,25.07
2017-11-07T10:32:47.459Z,20.00
2017-11-07T10:35:16.616Z,31.97
2017-11-07T10:37:45.849Z,29.47
2017-11-07T10:40:14.163Z,38.53
2017-11-07T10:42:42.498Z,37.10
2017-11-07T10:45:10.812Z,31.97
2017-11-07T10:47:39.113Z,35.87
2017-11-07T10:50:07.420Z,35.70
2017-11-07T10:52:35.727Z,77.27
2017-11-07T10:55:04.832Z,31.33
2017-11-07T10:57:33.931Z,28.00
2017-11-07T11:00:03.086Z,21.03
2017-11-07T11:02:31.475Z,30.10
2017-11-07T11:04:59.884Z,17.77
2017-11-07T11:07:28.260Z,24.97
2017-11-07T11:09:56.595Z,22.40
2017-11-07T11:12:25.066Z,23.20
2017-11-07T11:14:53.463Z,20.10
2017-11-07T11:17:21.807Z,21.70
2017-11-07T11:19:50.157Z,15.03
2017-11-07T11:22:18.534Z,14.40
2017-11-07T11:24:46.921Z,21.20
2017-11-07T11:27:15.246Z,20.00
2017-11-07T11:29:44.357Z,23.70
2017-11-07T11:32:13.504Z,21.30
2017-11-07T11:34:41.878Z,19.70
2017-11-07T11:37:10.267Z,24.93
2017-11-07T11:39:38.675Z,21.30
2017-11-07T11:42:07.047Z,22.27
2017-11-07T11:44:35.441Z,17.13
2017-11-07T11:47:03.738Z,25.90
2017-11-07T11:49:32.031Z,28.43
2017-11-07T11:52:00.341Z,24.17
2017-11-07T11:54:28.639Z,24.80
2017-11-07T11:56:56.953Z,21.53
2017-11-07T11:59:25.236Z,29.57
2017-11-07T12:01:53.522Z,27.53
2017-11-07T12:04:21.832Z,25.47
2017-11-07T12:06:50.931Z,45.33
2017-11-07T12:09:20.141Z,32.17
2017-11-07T12:11:48.438Z,31.97
2017-11-07T12:14:17.491Z,30.97
2017-11-07T12:16:45.784Z,39.07
2017-11-07T12:19:14.065Z,39.10
2017-11-07T12:21:42.400Z,40.60
2017-11-07T12:24:10.713Z,43.07
2017-11-07T12:26:39.086Z,36.50
2017-11-07T12:29:08.164Z,31.77
2017-11-07T12:31:36.463Z,45.67
2017-11-07T12:34:04.749Z,43.33
2017-11-07T12:36:33.034Z,36.97
2017-11-07T12:39:01.347Z,38.57
2017-11-07T12:41:30.425Z,35.80
2017-11-07T12:43:58.742Z,31.13
2017-11-07T12:46:27.023Z,34.27
2017-11-07T12:48:55.381Z,47.47
2017-11-07T12:54:24.540Z,32.83
2017-11-07T12:56:52.849Z,38.43
2017-11-07T12:59:21.926Z,35.87
2017-11-07T13:01:50.215Z,48.03
2017-11-07T13:04:18.513Z,39.40
2017-11-07T13:06:48.301Z,43.60
2017-11-07T13:09:16.606Z,46.47
2017-11-07T13:11:44.936Z,46.73
2017-11-07T13:14:13.230Z,44.90
2017-11-07T13:16:41.523Z,54.03
2017-11-07T13:19:10.605Z,55.03
2017-11-07T13:21:38.914Z,68.13
2017-11-07T13:24:07.975Z,45.77
2017-11-07T13:26:36.318Z,48.77
2017-11-07T13:29:05.395Z,46.63
2017-11-07T13:31:33.731Z,35.10
2017-11-07T13:34:02.876Z,36.23
2017-11-07T13:36:31.214Z,38.50
2017-11-07T13:38:59.561Z,29.33
2017-11-07T13:41:27.878Z,35.00
2017-11-07T13:43:56.957Z,26.27
2017-11-07T13:46:25.250Z,32.40
2017-11-07T13:48:53.558Z,45.97
2017-11-07T13:51:23.358Z,33.87
2017-11-07T13:53:51.651Z,27.50
2017-11-07T13:56:19.943Z,32.37
2017-11-07T13:58:48.227Z,30.73
2017-11-07T14:01:16.536Z,24.83
2017-11-07T14:03:45.647Z,27.43
2017-11-07T14:06:13.941Z,26.93
2017-11-07T14:08:42.244Z,32.57
2017-11-07T14:11:11.299Z,29.53
2017-11-07T14:13:39.618Z,29.57
2017-11-07T14:16:07.942Z,30.43
2017-11-07T14:18:36.274Z,26.10
2017-11-07T14:21:04.603Z,27.70
2017-11-07T14:23:32.957Z,22.40
2017-11-07T14:26:01.331Z,23.13
2017-11-07T14:28:29.680Z,30.80
2017-11-07T14:30:57.999Z,20.83
2017-11-07T14:33:26.323Z,21.77
2017-11-07T14:35:54.648Z,34.90
2017-11-07T14:38:23.712Z,26.60
2017-11-07T14:40:52.030Z,27.23
2017-11-07T14:43:20.308Z,22.90
2017-11-07T14:45:49.375Z,26.63
2017-11-07T14:48:17.671Z,27.53
2017-11-07T14:50:46.723Z,30.67
2017-11-07T14:53:15.809Z,25.90
2017-11-07T14:55:45.611Z,22.03
2017-11-07T14:58:14.697Z,25.73
2017-11-07T15:00:43.767Z,28.37
2017-11-07T15:03:12.050Z,33.97
2017-11-07T15:05:40.333Z,33.47
2017-11-07T15:08:10.145Z,28.43
2017-11-07T15:10:38.474Z,31.67
2017-11-07T15:13:07.570Z,26.80
2017-11-07T15:15:35.914Z,29.53
2017-11-07T15:18:04.223Z,26.30
2017-11-07T15:20:32.524Z,31.17
2017-11-07T15:23:00.894Z,29.40
2017-11-07T15:25:29.220Z,24.53
2017-11-07T15:27:58.288Z,24.27
2017-11-07T15:30:26.604Z,34.73
2017-11-07T15:32:54.903Z,29.97
2017-11-07T15:35:23.962Z,31.23
2017-11-07T15:37:53.065Z,30.47
2017-11-07T15:40:22.124Z,35.50
2017-11-07T15:42:51.192Z,31.30
2017-11-07T15:45:19.723Z,24.40
2017-11-07T15:47:48.786Z,27.63
2017-11-07T15:50:17.850Z,28.67
2017-11-07T15:52:46.910Z,25.20
2017-11-07T15:55:15.200Z,28.40
2017-11-07T15:57:44.301Z,31.23
2017-11-07T16:00:13.369Z,33.27
2017-11-07T16:02:41.696Z,27.93
2017-11-07T16:05:09.987Z,29.83
2017-11-07T16:07:38.342Z,29.40
2017-11-07T16:10:07.442Z,29.50
2017-11-07T16:12:35.746Z,34.03
2017-11-07T16:15:04.052Z,33.80
2017-11-07T16:17:32.374Z,39.87
2017-11-07T16:22:22.371Z,35.40
2017-11-07T16:24:50.655Z,40.90
2017-11-07T16:27:18.975Z,35.73
2017-11-07T16:29:47.307Z,44.63
2017-11-07T16:32:16.375Z,35.13
2017-11-07T16:34:44.670Z,44.13
2017-11-07T16:37:13.722Z,50.17
2017-11-07T16:39:42.035Z,42.00
2017-11-07T16:42:10.327Z,47.73
2017-11-07T16:44:38.759Z,42.93
2017-11-07T16:47:07.848Z,42.30
2017-11-07T16:49:36.156Z,43.53
2017-11-07T16:52:04.483Z,41.43
2017-11-07T16:54:32.831Z,45.40
2017-11-07T16:57:01.907Z,45.07
2017-11-07T16:59:30.244Z,44.23
2017-11-07T17:01:58.559Z,50.80
2017-11-07T17:04:26.848Z,39.70
2017-11-07T17:06:55.151Z,43.73
2017-11-07T17:09:23.443Z,47.20
2017-11-07T17:11:51.792Z,43.57
2017-11-07T17:14:20.089Z,41.67
2017-11-07T17:16:48.389Z,41.13
2017-11-07T17:19:17.088Z,34.80
2017-11-07T17:21:45.361Z,40.77
2017-11-07T17:24:13.672Z,48.00
2017-11-07T17:26:41.959Z,42.53
2017-11-07T17:29:10.254Z,36.80
2017-11-07T17:31:38.552Z,46.23
2017-11-07T17:34:06.860Z,41.13
2017-11-07T17:36:35.186Z,73.53
2017-11-07T17:39:04.271Z,41.87
2017-11-07T17:41:33.380Z,43.63
2017-11-07T17:44:01.739Z,42.70
2017-11-07T17:46:30.048Z,51.00
2017-11-07T17:48:58.358Z,52.00
2017-11-07T17:51:27.424Z,50.20
2017-11-07T17:53:55.942Z,52.37
2017-11-07T17:56:24.250Z,57.60
2017-11-07T17:58:53.307Z,56.33
2017-11-07T18:01:21.602Z,56.73
2017-11-07T18:03:50.161Z,51.80
2017-11-07T18:06:18.458Z,53.03
2017-11-07T18:08:46.797Z,54.40
2017-11-07T18:11:15.098Z,57.37
2017-11-07T18:13:43.396Z,52.03
2017-11-07T18:16:11.718Z,56.73
2017-11-07T18:18:40.031Z,53.37
2017-11-07T18:21:08.335Z,52.30
2017-11-07T18:23:36.665Z,53.83
2017-11-07T18:26:05.716Z,57.33
2017-11-07T18:28:34.085Z,58.07
2017-11-07T18:31:02.404Z,58.23
2017-11-07T18:33:31.072Z,58.90
2017-11-07T18:35:59.378Z,55.77
2017-11-07T18:38:27.702Z,52.73
2017-11-07T18:40:56.118Z,58.53
2017-11-07T18:43:26.089Z,63.67
2017-11-07T18:45:55.319Z,59.53
2017-11-07T18:48:23.606Z,63.27
2017-11-07T18:50:51.916Z,54.27
2017-11-07T18:53:20.215Z,56.27
2017-11-07T18:55:49.416Z,50.50
2017-11-07T18:58:17.733Z,53.10
2017-11-07T19:00:46.040Z,56.17
2017-11-07T19:03:14.332Z,51.30
2017-11-07T19:05:42.650Z,55.10
2017-11-07T19:08:10.975Z,50.50
2017-11-07T19:10:40.026Z,50.23
2017-11-07T19:13:08.319Z,59.20
2017-11-07T19:15:36.621Z,62.20
2017-11-07T19:18:04.935Z,60.87
2017-11-07T19:20:33.229Z,54.10
2017-11-07T19:23:02.320Z,64.03
2017-11-07T19:25:30.610Z,57.50
2017-11-07T19:27:58.913Z,70.30
2017-11-07T19:30:27.976Z,65.83
2017-11-07T19:32:56.271Z,60.57
2017-11-07T19:35:24.588Z,66.73
2017-11-07T19:37:52.887Z,61.10
2017-11-07T19:40:21.209Z,48.33
2017-11-07T19:42:49.559Z,39.50
2017-11-07T19:45:18.103Z,36.83
2017-11-07T19:47:46.391Z,37.63
2017-11-07T19:50:14.679Z,44.47
2017-11-07T19:52:42.999Z,48.70
2017-11-07T19:55:11.322Z,33.77
2017-11-07T19:57:40.392Z,40.17
2017-11-07T20:00:08.935Z,39.60
2017-11-07T20:02:37.273Z,33.97
2017-11-07T20:05:05.568Z,36.50
2017-11-07T20:07:33.878Z,41.80
2017-11-07T20:10:02.161Z,41.03
2017-11-07T20:12:30.456Z,36.53
2017-11-07T20:14:58.760Z,40.50
2017-11-07T20:17:28.003Z,38.87
2017-11-07T20:19:56.319Z,44.87
2017-11-07T20:22:24.624Z,44.83
2017-11-07T20:24:52.934Z,46.90
2017-11-07T20:27:21.283Z,60.20
2017-11-07T20:29:49.604Z,50.30
2017-11-07T20:32:18.832Z,54.10
2017-11-07T20:34:47.898Z,56.83
2017-11-07T20:37:16.209Z,55.23
2017-11-07T20:39:44.490Z,59.53
2017-11-07T20:42:12.789Z,75.53
2017-11-07T20:44:41.864Z,59.23
2017-11-07T20:47:10.164Z,64.60
2017-11-07T20:49:38.517Z,60.60
2017-11-07T20:52:06.806Z,65.63
2017-11-07T20:54:35.103Z,77.30
2017-11-07T20:57:03.396Z,61.97
2017-11-07T20:59:31.688Z,73.90
2017-11-07T21:02:00.036Z,66.83
2017-11-07T21:04:29.214Z,66.77
2017-11-07T21:06:57.520Z,91.57
2017-11-07T21:09:25.802Z,73.13
2017-11-07T21:11:54.134Z,121.37
2017-11-07T21:14:22.428Z,191.53
2017-11-07T21:16:50.740Z,106.07
2017-11-07T21:19:19.063Z,122.53
2017-11-07T21:21:50.962Z,134.37
2017-11-07T21:24:19.295Z,105.43
2017-11-07T21:26:47.598Z,74.67
2017-11-07T21:29:15.913Z,98.73
2017-11-07T21:31:44.995Z,84.67
2017-11-07T21:34:18.981Z,87.00
2017-11-07T21:36:47.303Z,144.87
2017-11-07T21:39:15.611Z,149.07
2017-11-07T21:41:44.679Z,299.87
2017-11-07T21:44:12.996Z,172.90
2017-11-07T21:46:41.302Z,113.80
2017-11-07T21:49:10.375Z,110.07
2017-11-07T21:51:38.672Z,126.87
2017-11-07T21:54:06.975Z,138.37
2017-11-07T21:56:35.280Z,159.00
2017-11-07T21:59:04.338Z,155.80
2017-11-07T22:01:32.704Z,269.03
2017-11-07T22:04:01.008Z,104.60
2017-11-07T22:06:29.323Z,97.17
2017-11-07T22:08:57.664Z,103.30
2017-11-07T22:11:26.005Z,119.20
2017-11-07T22:13:54.320Z,87.87
2017-11-07T22:16:22.684Z,114.13
2017-11-07T22:18:52.976Z,124.37
2017-11-07T22:21:21.289Z,88.17
2017-11-07T22:23:49.627Z,116.00
2017-11-07T22:26:18.722Z,98.70
2017-11-07T22:28:47.078Z,113.23
2017-11-07T22:31:15.384Z,88.33
2017-11-07T22:33:43.738Z,106.37
2017-11-07T22:36:12.063Z,87.83
2017-11-07T22:38:40.359Z,85.80
2017-11-07T22:41:08.680Z,80.63
2017-11-07T22:43:37.745Z,79.57
2017-11-07T22:46:06.043Z,75.50
2017-11-07T22:48:34.339Z,77.60
2017-11-07T22:51:02.638Z,70.67
2017-11-07T22:53:30.967Z,81.63
2017-11-07T22:55:59.254Z,68.03
2017-11-07T22:58:27.557Z,69.53
2017-11-07T23:00:55.909Z,66.00
2017-11-07T23:03:25.028Z,60.87
2017-11-07T23:05:53.427Z,62.03
2017-11-07T23:08:21.831Z,64.60
2017-11-07T23:10:50.247Z,62.03
2017-11-07T23:13:19.487Z,52.30
2017-11-07T23:15:48.605Z,66.33
2017-11-07T23:18:17.826Z,70.40
2017-11-07T23:20:46.888Z,56.03
2017-11-07T23:23:15.206Z,60.33
2017-11-07T23:25:43.515Z,64.97
2017-11-07T23:28:12.575Z,61.87
2017-11-07T23:30:40.862Z,67.17
2017-11-07T23:33:09.163Z,64.07
2017-11-07T23:35:37.468Z,95.80
2017-11-07T23:38:05.799Z,73.37
2017-11-07T23:40:34.095Z,68.23
2017-11-07T23:43:02.408Z,82.80
2017-11-07T23:45:30.694Z,63.43
2017-11-07T23:47:58.991Z,55.73
2017-11-07T23:50:27.332Z,63.80
2017-11-07T23:52:55.626Z,60.00
2017-11-07T23:55:23.937Z,65.83
2017-11-07T23:57:52.269Z,52.80
